sensor_id;sensor_type;location;lat;lon;timestamp;pressure;altitude;pressure_sealevel;temperature;humidity
65553;BME280;52465;51.560;14.368;2023-02-28T00:01:24;101672.28;;;6.45;65.99
65553;BME280;52465;51.560;14.368;2023-02-28T00:03:50;101703.84;;;6.68;64.96
65553;BME280;52465;51.560;14.368;2023-02-28T00:06:15;101715.94;;;6.69;65.18
65553;BME280;52465;51.560;14.368;2023-02-28T00:08:41;101712.19;;;6.73;65.42
65553;BME280;52465;51.560;14.368;2023-02-28T00:11:08;101712.31;;;6.71;65.70
65553;BME280;52465;51.560;14.368;2023-02-28T00:13:36;101713.13;;;6.72;65.79
65553;BME280;52465;51.560;14.368;2023-02-28T00:16:07;101717.41;;;6.73;65.09
65553;BME280;52465;51.560;14.368;2023-02-28T00:18:32;101703.66;;;6.71;65.48
65553;BME280;52465;51.560;14.368;2023-02-28T00:20:58;101688.94;;;6.57;65.32
65553;BME280;52465;51.560;14.368;2023-02-28T00:23:24;101694.47;;;6.65;65.42
65553;BME280;52465;51.560;14.368;2023-02-28T00:25:50;101689.00;;;6.55;65.40
65553;BME280;52465;51.560;14.368;2023-02-28T00:28:16;101696.34;;;6.63;65.32
65553;BME280;52465;51.560;14.368;2023-02-28T00:30:41;101706.28;;;6.71;65.50
65553;BME280;52465;51.560;14.368;2023-02-28T00:33:07;101680.56;;;6.52;65.24
65553;BME280;52465;51.560;14.368;2023-02-28T00:35:33;101712.31;;;6.71;65.42
65553;BME280;52465;51.560;14.368;2023-02-28T00:38:02;101713.25;;;6.70;65.43
65553;BME280;52465;51.560;14.368;2023-02-28T00:40:28;101691.59;;;6.55;65.76
65553;BME280;52465;51.560;14.368;2023-02-28T00:42:53;101720.13;;;6.71;65.49
65553;BME280;52465;51.560;14.368;2023-02-28T00:45:19;101709.16;;;6.66;65.58
65553;BME280;52465;51.560;14.368;2023-02-28T00:47:44;101708.16;;;6.69;65.33
65553;BME280;52465;51.560;14.368;2023-02-28T00:50:12;101710.81;;;6.67;65.85
65553;BME280;52465;51.560;14.368;2023-02-28T00:52:38;101700.72;;;6.62;65.04
65553;BME280;52465;51.560;14.368;2023-02-28T00:55:04;101708.22;;;6.67;65.03
65553;BME280;52465;51.560;14.368;2023-02-28T00:57:30;101707.38;;;6.67;65.49
65553;BME280;52465;51.560;14.368;2023-02-28T00:59:55;101699.34;;;6.57;64.96
65553;BME280;52465;51.560;14.368;2023-02-28T01:02:22;101686.78;;;6.49;64.96
65553;BME280;52465;51.560;14.368;2023-02-28T01:04:48;101715.13;;;6.68;65.20
65553;BME280;52465;51.560;14.368;2023-02-28T01:07:14;101684.94;;;6.51;65.44
65553;BME280;52465;51.560;14.368;2023-02-28T01:09:40;101702.78;;;6.57;65.42
65553;BME280;52465;51.560;14.368;2023-02-28T01:12:07;101705.00;;;6.63;65.78
65553;BME280;52465;51.560;14.368;2023-02-28T01:14:33;101710.25;;;6.62;65.43
65553;BME280;52465;51.560;14.368;2023-02-28T01:16:59;101670.81;;;6.41;65.35
65553;BME280;52465;51.560;14.368;2023-02-28T01:19:25;101703.41;;;6.61;65.42
65553;BME280;52465;51.560;14.368;2023-02-28T01:21:51;101640.56;;;6.12;65.67
65553;BME280;52465;51.560;14.368;2023-02-28T01:24:19;101710.09;;;6.65;65.58
65553;BME280;52465;51.560;14.368;2023-02-28T01:26:44;101701.63;;;6.61;65.32
65553;BME280;52465;51.560;14.368;2023-02-28T01:29:10;101706.66;;;6.65;64.87
65553;BME280;52465;51.560;14.368;2023-02-28T01:31:38;101717.91;;;6.65;65.66
65553;BME280;52465;51.560;14.368;2023-02-28T01:34:04;101716.22;;;6.64;65.72
65553;BME280;52465;51.560;14.368;2023-02-28T01:36:30;101724.88;;;6.65;65.36
65553;BME280;52465;51.560;14.368;2023-02-28T01:39:14;101715.41;;;6.63;65.34
65553;BME280;52465;51.560;14.368;2023-02-28T01:41:42;101691.72;;;6.54;65.32
65553;BME280;52465;51.560;14.368;2023-02-28T01:47:10;101706.09;;;6.59;65.39
65553;BME280;52465;51.560;14.368;2023-02-28T01:49:55;101711.13;;;6.62;65.54
65553;BME280;52465;51.560;14.368;2023-02-28T01:52:21;101683.91;;;6.54;65.29
65553;BME280;52465;51.560;14.368;2023-02-28T01:54:52;101699.50;;;6.54;65.71
65553;BME280;52465;51.560;14.368;2023-02-28T01:57:24;101679.38;;;6.43;65.35
65553;BME280;52465;51.560;14.368;2023-02-28T01:59:54;101706.94;;;6.60;65.37
65553;BME280;52465;51.560;14.368;2023-02-28T02:02:27;101669.16;;;6.40;65.59
65553;BME280;52465;51.560;14.368;2023-02-28T02:04:57;101676.88;;;6.42;65.49
65553;BME280;52465;51.560;14.368;2023-02-28T02:07:25;101695.97;;;6.55;65.81
65553;BME280;52465;51.560;14.368;2023-02-28T02:10:15;101681.78;;;6.46;65.47
65553;BME280;52465;51.560;14.368;2023-02-28T02:13:10;101694.03;;;6.58;65.82
65553;BME280;52465;51.560;14.368;2023-02-28T02:19:14;101687.16;;;6.57;65.43
65553;BME280;52465;51.560;14.368;2023-02-28T02:25:09;101680.25;;;6.56;65.60
65553;BME280;52465;51.560;14.368;2023-02-28T02:27:57;101685.47;;;6.56;65.15
65553;BME280;52465;51.560;14.368;2023-02-28T02:31:03;101681.19;;;6.55;65.78
65553;BME280;52465;51.560;14.368;2023-02-28T02:36:22;101671.22;;;6.35;65.43
65553;BME280;52465;51.560;14.368;2023-02-28T02:39:19;101674.22;;;6.56;65.05
65553;BME280;52465;51.560;14.368;2023-02-28T02:41:57;101673.50;;;6.54;65.53
65553;BME280;52465;51.560;14.368;2023-02-28T02:44:37;101665.88;;;6.51;65.89
65553;BME280;52465;51.560;14.368;2023-02-28T02:47:15;101664.13;;;6.51;65.53
65553;BME280;52465;51.560;14.368;2023-02-28T02:49:48;101639.06;;;6.36;65.53
65553;BME280;52465;51.560;14.368;2023-02-28T02:52:18;101682.97;;;6.55;65.48
65553;BME280;52465;51.560;14.368;2023-02-28T02:54:48;101669.97;;;6.55;65.40
65553;BME280;52465;51.560;14.368;2023-02-28T02:57:27;101670.25;;;6.50;65.30
65553;BME280;52465;51.560;14.368;2023-02-28T02:59:56;101675.25;;;6.53;65.93
65553;BME280;52465;51.560;14.368;2023-02-28T03:02:23;101670.16;;;6.52;65.28
65553;BME280;52465;51.560;14.368;2023-02-28T03:04:57;101666.72;;;6.51;65.12
65553;BME280;52465;51.560;14.368;2023-02-28T03:07:26;101666.91;;;6.48;65.00
65553;BME280;52465;51.560;14.368;2023-02-28T03:09:53;101677.13;;;6.51;65.59
65553;BME280;52465;51.560;14.368;2023-02-28T03:12:20;101672.09;;;6.48;65.84
65553;BME280;52465;51.560;14.368;2023-02-28T03:15:08;101677.13;;;6.51;65.25
65553;BME280;52465;51.560;14.368;2023-02-28T03:20:26;101684.00;;;6.52;65.37
65553;BME280;52465;51.560;14.368;2023-02-28T03:23:16;101680.84;;;6.47;65.42
65553;BME280;52465;51.560;14.368;2023-02-28T03:25:56;101689.28;;;6.51;65.35
65553;BME280;52465;51.560;14.368;2023-02-28T03:31:22;101684.19;;;6.49;65.47
65553;BME280;52465;51.560;14.368;2023-02-28T03:34:04;101683.63;;;6.44;65.11
65553;BME280;52465;51.560;14.368;2023-02-28T03:36:37;101664.69;;;6.28;65.56
65553;BME280;52465;51.560;14.368;2023-02-28T03:39:14;101692.91;;;6.48;65.93
65553;BME280;52465;51.560;14.368;2023-02-28T03:41:49;101684.78;;;6.40;65.58
65553;BME280;52465;51.560;14.368;2023-02-28T03:44:38;101692.09;;;6.48;65.30
65553;BME280;52465;51.560;14.368;2023-02-28T03:47:10;101683.72;;;6.43;65.47
65553;BME280;52465;51.560;14.368;2023-02-28T03:49:45;101698.22;;;6.47;65.46
65553;BME280;52465;51.560;14.368;2023-02-28T03:52:13;101668.22;;;6.27;65.83
65553;BME280;52465;51.560;14.368;2023-02-28T03:54:44;101677.31;;;6.34;65.15
65553;BME280;52465;51.560;14.368;2023-02-28T03:57:27;101681.50;;;6.36;65.61
65553;BME280;52465;51.560;14.368;2023-02-28T04:00:03;101685.03;;;6.35;65.35
65553;BME280;52465;51.560;14.368;2023-02-28T04:02:31;101681.78;;;6.32;66.00
65553;BME280;52465;51.560;14.368;2023-02-28T04:04:57;101685.97;;;6.34;65.88
65553;BME280;52465;51.560;14.368;2023-02-28T04:07:23;101632.78;;;5.97;65.57
65553;BME280;52465;51.560;14.368;2023-02-28T04:09:48;101713.00;;;6.46;65.25
65553;BME280;52465;51.560;14.368;2023-02-28T04:12:19;101684.28;;;6.33;65.40
65553;BME280;52465;51.560;14.368;2023-02-28T04:14:46;101686.25;;;6.30;65.44
65553;BME280;52465;51.560;14.368;2023-02-28T04:17:11;101710.56;;;6.43;65.64
65553;BME280;52465;51.560;14.368;2023-02-28T04:19:37;101709.56;;;6.46;65.59
65553;BME280;52465;51.560;14.368;2023-02-28T04:22:02;101675.31;;;6.25;65.45
65553;BME280;52465;51.560;14.368;2023-02-28T04:24:28;101705.28;;;6.45;65.88
65553;BME280;52465;51.560;14.368;2023-02-28T04:26:55;101675.19;;;6.26;65.54
65553;BME280;52465;51.560;14.368;2023-02-28T04:29:23;101695.34;;;6.37;65.26
65553;BME280;52465;51.560;14.368;2023-02-28T04:31:49;101696.19;;;6.38;65.63
65553;BME280;52465;51.560;14.368;2023-02-28T04:34:15;101706.22;;;6.44;65.55
65553;BME280;52465;51.560;14.368;2023-02-28T04:36:41;101689.22;;;6.38;65.96
65553;BME280;52465;51.560;14.368;2023-02-28T04:39:07;101695.44;;;6.35;65.83
65553;BME280;52465;51.560;14.368;2023-02-28T04:41:33;101691.53;;;6.28;65.36
65553;BME280;52465;51.560;14.368;2023-02-28T04:43:58;101705.38;;;6.43;65.85
65553;BME280;52465;51.560;14.368;2023-02-28T04:46:24;101705.38;;;6.43;65.87
65553;BME280;52465;51.560;14.368;2023-02-28T04:48:50;101702.97;;;6.40;65.47
65553;BME280;52465;51.560;14.368;2023-02-28T04:51:17;101707.25;;;6.41;65.56
65553;BME280;52465;51.560;14.368;2023-02-28T04:53:45;101653.66;;;6.10;65.85
65553;BME280;52465;51.560;14.368;2023-02-28T04:56:13;101691.53;;;6.28;65.94
65553;BME280;52465;51.560;14.368;2023-02-28T04:58:39;101662.75;;;6.17;65.30
65553;BME280;52465;51.560;14.368;2023-02-28T05:01:14;101702.03;;;6.41;65.66
65553;BME280;52465;51.560;14.368;2023-02-28T05:03:41;101694.78;;;6.32;66.05
65553;BME280;52465;51.560;14.368;2023-02-28T05:06:08;101702.59;;;6.32;65.55
65553;BME280;52465;51.560;14.368;2023-02-28T05:08:33;101707.31;;;6.40;66.01
65553;BME280;52465;51.560;14.368;2023-02-28T05:11:02;101707.41;;;6.38;65.41
65553;BME280;52465;51.560;14.368;2023-02-28T05:13:28;101689.03;;;6.27;65.74
65553;BME280;52465;51.560;14.368;2023-02-28T05:15:54;101709.19;;;6.38;65.57
65553;BME280;52465;51.560;14.368;2023-02-28T05:18:23;101715.31;;;6.36;66.06
65553;BME280;52465;51.560;14.368;2023-02-28T05:20:48;101706.78;;;6.34;65.86
65553;BME280;52465;51.560;14.368;2023-02-28T05:23:15;101671.84;;;6.10;65.60
65553;BME280;52465;51.560;14.368;2023-02-28T05:25:42;101710.28;;;6.33;65.80
65553;BME280;52465;51.560;14.368;2023-02-28T05:28:07;101671.84;;;6.10;65.91
65553;BME280;52465;51.560;14.368;2023-02-28T05:30:33;101721.53;;;6.34;65.75
65553;BME280;52465;51.560;14.368;2023-02-28T05:32:59;101700.53;;;6.23;65.25
65553;BME280;52465;51.560;14.368;2023-02-28T05:35:26;101709.00;;;6.26;65.44
65553;BME280;52465;51.560;14.368;2023-02-28T05:37:51;101718.84;;;6.35;66.16
65553;BME280;52465;51.560;14.368;2023-02-28T05:40:19;101688.28;;;6.10;65.54
65553;BME280;52465;51.560;14.368;2023-02-28T05:42:46;101728.44;;;6.35;65.81
65553;BME280;52465;51.560;14.368;2023-02-28T05:45:12;101733.63;;;6.35;65.90
65553;BME280;52465;51.560;14.368;2023-02-28T05:47:38;101700.19;;;6.15;65.52
65553;BME280;52465;51.560;14.368;2023-02-28T05:50:04;101732.81;;;6.34;65.82
65553;BME280;52465;51.560;14.368;2023-02-28T05:52:32;101724.44;;;6.29;65.85
65553;BME280;52465;51.560;14.368;2023-02-28T05:54:58;101698.13;;;6.05;65.39
65553;BME280;52465;51.560;14.368;2023-02-28T05:57:24;101745.13;;;6.31;65.29
65553;BME280;52465;51.560;14.368;2023-02-28T05:59:49;101734.34;;;6.23;65.70
65553;BME280;52465;51.560;14.368;2023-02-28T06:02:16;101743.38;;;6.31;65.44
65553;BME280;52465;51.560;14.368;2023-02-28T06:04:43;101745.25;;;6.29;65.81
65553;BME280;52465;51.560;14.368;2023-02-28T06:07:09;101751.19;;;6.31;65.53
65553;BME280;52465;51.560;14.368;2023-02-28T06:09:36;101760.66;;;6.32;65.83
65553;BME280;52465;51.560;14.368;2023-02-28T06:12:03;101759.81;;;6.32;65.52
65553;BME280;52465;51.560;14.368;2023-02-28T06:14:31;101740.59;;;6.20;65.30
65553;BME280;52465;51.560;14.368;2023-02-28T06:16:58;101742.44;;;6.18;65.70
65553;BME280;52465;51.560;14.368;2023-02-28T06:19:24;101741.78;;;6.15;65.59
65553;BME280;52465;51.560;14.368;2023-02-28T06:21:54;101760.75;;;6.31;65.74
65553;BME280;52465;51.560;14.368;2023-02-28T06:24:25;101754.53;;;6.19;65.43
65553;BME280;52465;51.560;14.368;2023-02-28T06:26:53;101770.41;;;6.29;65.44
65553;BME280;52465;51.560;14.368;2023-02-28T06:32:27;101765.22;;;6.29;65.58
65553;BME280;52465;51.560;14.368;2023-02-28T06:34:53;101763.72;;;6.25;66.02
65553;BME280;52465;51.560;14.368;2023-02-28T06:37:18;101757.94;;;6.20;65.45
65553;BME280;52465;51.560;14.368;2023-02-28T06:39:47;101759.63;;;6.21;65.54
65553;BME280;52465;51.560;14.368;2023-02-28T06:42:12;101716.13;;;5.94;65.71
65553;BME280;52465;51.560;14.368;2023-02-28T06:44:38;101779.31;;;6.25;65.80
65553;BME280;52465;51.560;14.368;2023-02-28T06:47:05;101765.09;;;6.16;65.82
65553;BME280;52465;51.560;14.368;2023-02-28T06:49:33;101780.31;;;6.22;65.64
65553;BME280;52465;51.560;14.368;2023-02-28T06:51:59;101788.97;;;6.23;65.90
65553;BME280;52465;51.560;14.368;2023-02-28T06:54:24;101764.81;;;6.06;65.73
65553;BME280;52465;51.560;14.368;2023-02-28T06:56:55;101798.47;;;6.24;65.48
65553;BME280;52465;51.560;14.368;2023-02-28T06:59:23;101785.72;;;6.19;65.69
65553;BME280;52465;51.560;14.368;2023-02-28T07:01:48;101790.00;;;6.20;65.41
65553;BME280;52465;51.560;14.368;2023-02-28T07:04:14;101757.66;;;5.96;65.82
65553;BME280;52465;51.560;14.368;2023-02-28T07:06:39;101798.63;;;6.21;65.67
65553;BME280;52465;51.560;14.368;2023-02-28T07:09:06;101776.22;;;6.04;65.68
65553;BME280;52465;51.560;14.368;2023-02-28T07:11:31;101772.03;;;6.01;65.46
65553;BME280;52465;51.560;14.368;2023-02-28T07:13:57;101758.53;;;5.95;65.15
65553;BME280;52465;51.560;14.368;2023-02-28T07:16:24;101783.56;;;6.12;65.57
65553;BME280;52465;51.560;14.368;2023-02-28T07:18:52;101788.13;;;6.08;65.39
65553;BME280;52465;51.560;14.368;2023-02-28T07:21:18;101774.72;;;6.00;65.64
65553;BME280;52465;51.560;14.368;2023-02-28T07:23:47;101799.16;;;6.12;65.35
65553;BME280;52465;51.560;14.368;2023-02-28T07:26:15;101778.06;;;6.02;65.70
65553;BME280;52465;51.560;14.368;2023-02-28T07:28:43;101788.13;;;6.08;65.43
65553;BME280;52465;51.560;14.368;2023-02-28T07:31:09;101805.69;;;6.19;65.43
65553;BME280;52465;51.560;14.368;2023-02-28T07:33:36;101792.47;;;6.07;65.74
65553;BME280;52465;51.560;14.368;2023-02-28T07:36:07;101809.22;;;6.18;65.47
65553;BME280;52465;51.560;14.368;2023-02-28T07:38:36;101806.94;;;6.12;65.43
65553;BME280;52465;51.560;14.368;2023-02-28T07:41:03;101810.13;;;6.17;65.32
65553;BME280;52465;51.560;14.368;2023-02-28T07:43:33;101815.25;;;6.18;65.50
65553;BME280;52465;51.560;14.368;2023-02-28T07:46:05;101810.41;;;6.12;65.50
65553;BME280;52465;51.560;14.368;2023-02-28T07:48:34;101803.63;;;6.09;65.95
65553;BME280;52465;51.560;14.368;2023-02-28T07:51:01;101804.19;;;6.15;65.50
65553;BME280;52465;51.560;14.368;2023-02-28T07:53:30;101821.28;;;6.19;65.29
65553;BME280;52465;51.560;14.368;2023-02-28T07:56:00;101814.44;;;6.18;65.12
65553;BME280;52465;51.560;14.368;2023-02-28T07:58:26;101813.56;;;6.17;65.52
65553;BME280;52465;51.560;14.368;2023-02-28T08:00:52;101794.25;;;6.07;65.26
65553;BME280;52465;51.560;14.368;2023-02-28T08:03:19;101769.13;;;5.92;65.16
65553;BME280;52465;51.560;14.368;2023-02-28T08:05:50;101814.44;;;6.18;65.30
65553;BME280;52465;51.560;14.368;2023-02-28T08:08:17;101814.44;;;6.18;65.09
65553;BME280;52465;51.560;14.368;2023-02-28T08:10:43;101816.09;;;6.19;65.60
65553;BME280;52465;51.560;14.368;2023-02-28T08:13:09;101821.28;;;6.19;65.16
65553;BME280;52465;51.560;14.368;2023-02-28T08:15:34;101809.56;;;6.12;65.47
65553;BME280;52465;51.560;14.368;2023-02-28T08:18:00;101815.25;;;6.18;65.53
65553;BME280;52465;51.560;14.368;2023-02-28T08:20:26;101804.28;;;6.13;65.47
65553;BME280;52465;51.560;14.368;2023-02-28T08:22:52;101802.88;;;6.07;64.98
65553;BME280;52465;51.560;14.368;2023-02-28T08:25:18;101812.34;;;6.08;65.36
65553;BME280;52465;51.560;14.368;2023-02-28T08:27:47;101819.63;;;6.18;65.69
65553;BME280;52465;51.560;14.368;2023-02-28T08:30:13;101818.97;;;6.14;65.63
65553;BME280;52465;51.560;14.368;2023-02-28T08:32:42;101823.97;;;6.17;65.22
65553;BME280;52465;51.560;14.368;2023-02-28T08:35:08;101802.94;;;6.06;65.28
65553;BME280;52465;51.560;14.368;2023-02-28T08:37:34;101824.72;;;6.19;65.15
65553;BME280;52465;51.560;14.368;2023-02-28T08:40:00;101822.28;;;6.16;65.54
65553;BME280;52465;51.560;14.368;2023-02-28T08:42:26;101782.13;;;5.92;65.21
65553;BME280;52465;51.560;14.368;2023-02-28T08:44:51;101822.28;;;6.16;65.80
65553;BME280;52465;51.560;14.368;2023-02-28T08:47:17;101794.69;;;5.99;65.37
65553;BME280;52465;51.560;14.368;2023-02-28T08:49:43;101811.25;;;6.13;65.46
65553;BME280;52465;51.560;14.368;2023-02-28T08:52:10;101810.69;;;6.07;65.39
65553;BME280;52465;51.560;14.368;2023-02-28T08:54:35;101827.44;;;6.18;65.13
65553;BME280;52465;51.560;14.368;2023-02-28T08:57:02;101824.81;;;6.18;65.53
65553;BME280;52465;51.560;14.368;2023-02-28T08:59:29;101807.81;;;6.12;65.37
65553;BME280;52465;51.560;14.368;2023-02-28T09:01:57;101815.41;;;6.15;65.74
65553;BME280;52465;51.560;14.368;2023-02-28T09:04:25;101819.63;;;6.18;65.68
65553;BME280;52465;51.560;14.368;2023-02-28T09:06:51;101786.72;;;6.02;65.16
65553;BME280;52465;51.560;14.368;2023-02-28T09:09:17;101812.56;;;6.20;65.33
65553;BME280;52465;51.560;14.368;2023-02-28T09:11:46;101765.59;;;5.93;65.56
65553;BME280;52465;51.560;14.368;2023-02-28T09:14:14;101817.75;;;6.20;65.11
65553;BME280;52465;51.560;14.368;2023-02-28T09:16:39;101776.56;;;5.98;65.25
65553;BME280;52465;51.560;14.368;2023-02-28T09:19:05;101783.09;;;6.05;65.56
65553;BME280;52465;51.560;14.368;2023-02-28T09:21:30;101811.63;;;6.21;65.58
65553;BME280;52465;51.560;14.368;2023-02-28T09:23:56;101817.66;;;6.21;65.23
65553;BME280;52465;51.560;14.368;2023-02-28T09:26:25;101816.81;;;6.21;65.38
65553;BME280;52465;51.560;14.368;2023-02-28T09:28:52;101811.88;;;6.16;65.59
65553;BME280;52465;51.560;14.368;2023-02-28T09:31:21;101800.66;;;6.16;65.55
65553;BME280;52465;51.560;14.368;2023-02-28T09:33:51;101823.63;;;6.23;65.15
65553;BME280;52465;51.560;14.368;2023-02-28T09:36:17;101820.94;;;6.25;65.51
65553;BME280;52465;51.560;14.368;2023-02-28T09:38:43;101809.03;;;6.21;65.49
65553;BME280;52465;51.560;14.368;2023-02-28T09:41:19;101817.41;;;6.26;65.47
65553;BME280;52465;51.560;14.368;2023-02-28T09:43:50;101801.22;;;6.21;64.99
65553;BME280;52465;51.560;14.368;2023-02-28T09:46:38;101810.53;;;6.25;65.22
65553;BME280;52465;51.560;14.368;2023-02-28T09:49:28;101812.03;;;6.29;65.56
65553;BME280;52465;51.560;14.368;2023-02-28T09:52:04;101815.25;;;6.32;65.01
65553;BME280;52465;51.560;14.368;2023-02-28T09:54:32;101819.53;;;6.33;65.32
65553;BME280;52465;51.560;14.368;2023-02-28T09:57:07;101825.56;;;6.34;65.02
65553;BME280;52465;51.560;14.368;2023-02-28T10:00:03;101818.63;;;6.34;65.08
65553;BME280;52465;51.560;14.368;2023-02-28T10:05:42;101813.34;;;6.36;64.84
65553;BME280;52465;51.560;14.368;2023-02-28T10:08:16;101791.22;;;6.29;65.07
65553;BME280;52465;51.560;14.368;2023-02-28T10:10:50;101813.13;;;6.39;64.73
65553;BME280;52465;51.560;14.368;2023-02-28T10:15:58;101765.19;;;6.15;65.36
65553;BME280;52465;51.560;14.368;2023-02-28T10:19:16;101815.38;;;6.45;64.93
65553;BME280;52465;51.560;14.368;2023-02-28T10:22:17;101805.72;;;6.47;65.08
65553;BME280;52465;51.560;14.368;2023-02-28T10:24:52;101782.22;;;6.34;65.11
65553;BME280;52465;51.560;14.368;2023-02-28T10:27:21;101798.03;;;6.46;64.62
65553;BME280;52465;51.560;14.368;2023-02-28T10:29:49;101798.91;;;6.45;64.79
65553;BME280;52465;51.560;14.368;2023-02-28T10:32:27;101801.09;;;6.52;64.75
65553;BME280;52465;51.560;14.368;2023-02-28T10:35:06;101805.34;;;6.53;65.02
65553;BME280;52465;51.560;14.368;2023-02-28T10:37:31;101760.00;;;6.29;64.95
65553;BME280;52465;51.560;14.368;2023-02-28T10:39:57;101791.78;;;6.48;64.90
65553;BME280;52465;51.560;14.368;2023-02-28T10:42:28;101795.69;;;6.55;65.15
65553;BME280;52465;51.560;14.368;2023-02-28T10:47:33;101753.50;;;6.36;64.68
65553;BME280;52465;51.560;14.368;2023-02-28T10:50:00;101729.25;;;6.21;64.77
65553;BME280;52465;51.560;14.368;2023-02-28T10:52:39;101783.50;;;6.56;65.05
65553;BME280;52465;51.560;14.368;2023-02-28T10:55:23;101785.81;;;6.60;65.04
65553;BME280;52465;51.560;14.368;2023-02-28T10:57:51;101751.38;;;6.43;64.97
65553;BME280;52465;51.560;14.368;2023-02-28T11:00:20;101785.44;;;6.67;64.84
65553;BME280;52465;51.560;14.368;2023-02-28T11:02:46;101782.03;;;6.66;64.65
65553;BME280;52465;51.560;14.368;2023-02-28T11:05:25;101785.19;;;6.71;64.86
65553;BME280;52465;51.560;14.368;2023-02-28T11:07:54;101744.56;;;6.54;64.60
65553;BME280;52465;51.560;14.368;2023-02-28T11:10:24;101768.72;;;6.71;64.95
65553;BME280;52465;51.560;14.368;2023-02-28T11:12:55;101747.84;;;6.58;65.02
65553;BME280;52465;51.560;14.368;2023-02-28T11:15:26;101777.09;;;6.76;65.14
65553;BME280;52465;51.560;14.368;2023-02-28T11:17:54;101730.56;;;6.43;64.64
65553;BME280;52465;51.560;14.368;2023-02-28T11:20:24;101777.75;;;6.79;65.12
65553;BME280;52465;51.560;14.368;2023-02-28T11:22:51;101781.09;;;6.81;64.82
65553;BME280;52465;51.560;14.368;2023-02-28T11:25:33;101777.53;;;6.82;64.70
65553;BME280;52465;51.560;14.368;2023-02-28T11:28:02;101767.03;;;6.84;64.77
65553;BME280;52465;51.560;14.368;2023-02-28T11:30:37;101773.94;;;6.85;64.60
65553;BME280;52465;51.560;14.368;2023-02-28T11:33:28;101772.88;;;6.87;65.10
65553;BME280;52465;51.560;14.368;2023-02-28T11:36:02;101772.06;;;6.87;64.71
65553;BME280;52465;51.560;14.368;2023-02-28T11:38:28;101745.47;;;6.82;65.05
65553;BME280;52465;51.560;14.368;2023-02-28T11:43:35;101691.63;;;6.41;65.02
65553;BME280;52465;51.560;14.368;2023-02-28T11:49:02;101737.38;;;6.86;64.95
65553;BME280;52465;51.560;14.368;2023-02-28T11:51:35;101719.00;;;6.61;64.83
65553;BME280;52465;51.560;14.368;2023-02-28T11:57:00;101745.63;;;6.93;64.92
65553;BME280;52465;51.560;14.368;2023-02-28T11:59:49;101741.72;;;7.00;64.50
65553;BME280;52465;51.560;14.368;2023-02-28T12:02:25;101751.84;;;7.05;64.90
65553;BME280;52465;51.560;14.368;2023-02-28T12:05:22;101747.34;;;7.07;64.97
65553;BME280;52465;51.560;14.368;2023-02-28T12:08:20;101749.06;;;7.08;64.77
65553;BME280;52465;51.560;14.368;2023-02-28T12:11:02;101746.34;;;7.09;65.19
65553;BME280;52465;51.560;14.368;2023-02-28T12:16:21;101742.69;;;7.12;64.70
65553;BME280;52465;51.560;14.368;2023-02-28T12:24:47;101745.94;;;7.15;64.68
65553;BME280;52465;51.560;14.368;2023-02-28T12:27:18;101739.69;;;7.18;64.65
65553;BME280;52465;51.560;14.368;2023-02-28T12:32:44;101744.72;;;7.21;64.79
65553;BME280;52465;51.560;14.368;2023-02-28T12:35:14;101729.94;;;7.22;64.78
65553;BME280;52465;51.560;14.368;2023-02-28T12:38:01;101731.59;;;7.23;64.63
65553;BME280;52465;51.560;14.368;2023-02-28T12:40:40;101740.16;;;7.25;64.35
65553;BME280;52465;51.560;14.368;2023-02-28T12:43:35;101723.78;;;7.23;64.11
65553;BME280;52465;51.560;14.368;2023-02-28T12:46:29;101731.19;;;7.29;64.59
65553;BME280;52465;51.560;14.368;2023-02-28T12:48:56;101719.88;;;7.30;64.58
65553;BME280;52465;51.560;14.368;2023-02-28T12:51:25;101711.50;;;7.25;64.75
65553;BME280;52465;51.560;14.368;2023-02-28T12:54:04;101693.56;;;7.20;65.06
65553;BME280;52465;51.560;14.368;2023-02-28T12:56:35;101711.13;;;7.31;64.45
65553;BME280;52465;51.560;14.368;2023-02-28T12:59:25;101702.47;;;7.30;64.49
65553;BME280;52465;51.560;14.368;2023-02-28T13:02:21;101703.28;;;7.31;64.34
65553;BME280;52465;51.560;14.368;2023-02-28T13:05:10;101697.16;;;7.32;64.30
65553;BME280;52465;51.560;14.368;2023-02-28T13:08:08;101696.31;;;7.31;64.58
65553;BME280;52465;51.560;14.368;2023-02-28T13:10:41;101639.34;;;7.00;64.44
65553;BME280;52465;51.560;14.368;2023-02-28T13:13:14;101689.72;;;7.26;64.46
65553;BME280;52465;51.560;14.368;2023-02-28T13:15:41;101686.72;;;7.32;64.95
65553;BME280;52465;51.560;14.368;2023-02-28T13:18:44;101687.66;;;7.31;64.41
65553;BME280;52465;51.560;14.368;2023-02-28T13:21:25;101690.75;;;7.23;64.96
65553;BME280;52465;51.560;14.368;2023-02-28T13:26:21;101692.94;;;7.29;65.57
65553;BME280;52465;51.560;14.368;2023-02-28T13:29:21;101685.25;;;7.28;64.69
65553;BME280;52465;51.560;14.368;2023-02-28T13:34:32;101657.41;;;7.15;64.87
65553;BME280;52465;51.560;14.368;2023-02-28T13:39:50;101658.13;;;7.18;64.47
65553;BME280;52465;51.560;14.368;2023-02-28T13:42:23;101674.81;;;7.28;64.82
65553;BME280;52465;51.560;14.368;2023-02-28T13:47:37;101649.06;;;7.10;64.87
65553;BME280;52465;51.560;14.368;2023-02-28T14:01:28;101669.72;;;7.26;64.27
65553;BME280;52465;51.560;14.368;2023-02-28T14:06:48;101658.47;;;7.26;64.66
65553;BME280;52465;51.560;14.368;2023-02-28T14:09:54;101619.75;;;7.07;64.96
65553;BME280;52465;51.560;14.368;2023-02-28T14:12:55;101650.78;;;7.24;64.78
65553;BME280;52465;51.560;14.368;2023-02-28T14:18:01;101645.56;;;7.24;64.62
65553;BME280;52465;51.560;14.368;2023-02-28T14:20:30;101639.19;;;7.15;64.57
65553;BME280;52465;51.560;14.368;2023-02-28T14:23:06;101626.75;;;7.06;65.31
65553;BME280;52465;51.560;14.368;2023-02-28T14:25:47;101655.97;;;7.24;64.78
65553;BME280;52465;51.560;14.368;2023-02-28T14:31:06;101653.44;;;7.23;65.01